Time;durP1;ratioP1;P1;durP2;ratioP2;P2;SDS_P1;SDS_P2;PMS_P1;PMS_P2;Temp;Humidity;BMP_temperature;BMP_pressure;BME280_temperature;BME280_humidity;BME280_pressure;Samples;Min_cycle;Max_cycle;Signal;HPM_P1;HPM_P2
2021/03/23 00:01:16;;;;;;;;;6.00;5.50;;;;;;;;3725137;37;20993;-66
2021/03/23 00:03:46;;;;;;;;;8.00;4.50;;;;;;;;3725305;38;18074;-65
2021/03/23 00:06:15;;;;;;;;;4.25;4.00;;;;;;;;3725087;37;20971;-64
2021/03/23 00:08:42;;;;;;;;;4.00;4.00;;;;;;;;3724739;37;20957;-65
2021/03/23 00:11:15;;;;;;;;;0.50;0.50;;;;;;;;3725241;37;20939;-66
2021/03/23 00:13:41;;;;;;;;;5.00;4.00;;;;;;;;3725139;38;20929;-66
2021/03/23 00:16:08;;;;;;;;;5.00;4.00;;;;;;;;3725192;38;20925;-66
2021/03/23 00:18:34;;;;;;;;;2.50;2.50;;;;;;;;3725129;37;20961;-68
2021/03/23 00:21:01;;;;;;;;;7.00;4.00;;;;;;;;3724859;37;20956;-66
2021/03/23 00:23:27;;;;;;;;;4.25;4.00;;;;;;;;3724704;37;20939;-66
2021/03/23 00:25:54;;;;;;;;;5.00;4.75;;;;;;;;3725413;38;20905;-67
2021/03/23 00:28:22;;;;;;;;;2.00;2.00;;;;;;;;3724935;38;18049;-66
2021/03/23 00:30:49;;;;;;;;;1.75;1.00;;;;;;;;3725540;38;20933;-67
2021/03/23 00:33:14;;;;;;;;;3.00;2.00;;;;;;;;3725615;37;21016;-69
2021/03/23 00:35:41;;;;;;;;;4.75;3.50;;;;;;;;3725391;37;20913;-68
2021/03/23 00:38:10;;;;;;;;;1.25;1.25;;;;;;;;3725458;37;18112;-68
2021/03/23 00:40:38;;;;;;;;;3.00;2.00;;;;;;;;3725968;38;20928;-68
2021/03/23 00:43:05;;;;;;;;;1.50;1.00;;;;;;;;3725384;37;20927;-68
2021/03/23 00:45:37;;;;;;;;;5.00;4.25;;;;;;;;3725919;37;20889;-66
2021/03/23 00:48:04;;;;;;;;;4.25;4.00;;;;;;;;3726954;37;20863;-67
2021/03/23 00:50:30;;;;;;;;;1.50;1.00;;;;;;;;3741980;38;20915;-67
2021/03/23 00:52:56;;;;;;;;;5.00;2.50;;;;;;;;3741904;38;20608;-67
2021/03/23 00:55:23;;;;;;;;;5.50;4.00;;;;;;;;3726333;37;20903;-67
2021/03/23 00:58:08;;;;;;;;;4.25;2.00;;;;;;;;3738006;37;18015;-67
2021/03/23 01:00:39;;;;;;;;;1.00;0.75;;;;;;;;3741952;37;20892;-66
2021/03/23 01:03:05;;;;;;;;;4.00;1.00;;;;;;;;3737907;38;20915;-66
2021/03/23 01:05:32;;;;;;;;;2.00;1.25;;;;;;;;3725151;37;20877;-68
2021/03/23 01:07:59;;;;;;;;;2.00;2.00;;;;;;;;3725371;38;20874;-66
2021/03/23 01:10:27;;;;;;;;;1.00;1.00;;;;;;;;3724915;38;20885;-66
2021/03/23 01:12:53;;;;;;;;;2.50;2.00;;;;;;;;3725277;38;20863;-67
2021/03/23 01:15:20;;;;;;;;;4.00;2.00;;;;;;;;3725400;38;20861;-66
2021/03/23 01:17:46;;;;;;;;;2.75;2.75;;;;;;;;3725244;37;20860;-66
2021/03/23 01:20:14;;;;;;;;;4.00;2.00;;;;;;;;3725226;38;20866;-66
2021/03/23 01:22:41;;;;;;;;;14.75;8.00;;;;;;;;3725374;37;17978;-66
2021/03/23 01:25:08;;;;;;;;;4.50;2.00;;;;;;;;3724851;37;20865;-66
2021/03/23 01:27:36;;;;;;;;;5.00;3.50;;;;;;;;3725205;38;20858;-67
2021/03/23 01:30:03;;;;;;;;;4.00;4.00;;;;;;;;3725416;38;20554;-68
2021/03/23 01:32:29;;;;;;;;;4.25;3.00;;;;;;;;3725293;37;17991;-68
2021/03/23 01:34:55;;;;;;;;;5.00;4.00;;;;;;;;3725291;38;20842;-65
2021/03/23 01:37:21;;;;;;;;;3.00;2.00;;;;;;;;3725461;38;17960;-66
2021/03/23 01:39:48;;;;;;;;;0.50;0.50;;;;;;;;3726558;37;20843;-66
2021/03/23 01:42:18;;;;;;;;;3.75;2.00;;;;;;;;3725115;37;17946;-66
2021/03/23 01:44:45;;;;;;;;;0.00;0.00;;;;;;;;3727724;38;20837;-67
2021/03/23 01:47:11;;;;;;;;;4.00;4.00;;;;;;;;3726759;37;20799;-65
2021/03/23 01:49:45;;;;;;;;;4.00;2.00;;;;;;;;3725663;37;20812;-67
2021/03/23 01:52:15;;;;;;;;;2.00;1.50;;;;;;;;3725324;38;17931;-69
2021/03/23 01:54:45;;;;;;;;;3.50;3.50;;;;;;;;3724904;37;20826;-68
2021/03/23 01:57:13;;;;;;;;;2.50;2.00;;;;;;;;3724885;37;20857;-67
2021/03/23 01:59:43;;;;;;;;;2.00;1.00;;;;;;;;3725822;38;20810;-68
2021/03/23 02:02:15;;;;;;;;;1.00;1.00;;;;;;;;3725331;37;20801;-68
2021/03/23 02:04:41;;;;;;;;;1.00;1.00;;;;;;;;3725379;38;20816;-67
2021/03/23 02:07:07;;;;;;;;;4.00;2.00;;;;;;;;3724939;38;20735;-68
2021/03/23 02:09:36;;;;;;;;;4.00;2.00;;;;;;;;3725201;37;20783;-67
2021/03/23 02:12:07;;;;;;;;;1.00;1.00;;;;;;;;3724826;38;17919;-67
2021/03/23 02:14:39;;;;;;;;;4.00;2.00;;;;;;;;3724876;37;20797;-67
2021/03/23 02:17:33;;;;;;;;;2.50;2.00;;;;;;;;3725327;38;20772;-67
2021/03/23 02:20:01;;;;;;;;;4.25;2.00;;;;;;;;3724868;37;20826;-67
2021/03/23 02:22:30;;;;;;;;;4.00;4.00;;;;;;;;3724856;38;20792;-68
2021/03/23 02:24:57;;;;;;;;;4.00;2.00;;;;;;;;3725307;38;20867;-67
2021/03/23 02:27:24;;;;;;;;;3.00;1.50;;;;;;;;3724870;37;20810;-68
2021/03/23 02:29:52;;;;;;;;;5.00;4.00;;;;;;;;3724987;37;20791;-69
2021/03/23 02:32:19;;;;;;;;;4.00;2.50;;;;;;;;3724963;37;20796;-66
2021/03/23 02:34:47;;;;;;;;;2.50;2.50;;;;;;;;3724959;38;20743;-69
2021/03/23 02:37:15;;;;;;;;;5.00;2.50;;;;;;;;3725231;38;20768;-68
2021/03/23 02:39:41;;;;;;;;;1.25;1.25;;;;;;;;3724683;37;20708;-69
2021/03/23 02:42:08;;;;;;;;;2.00;2.00;;;;;;;;3724964;38;20761;-68
2021/03/23 02:44:41;;;;;;;;;2.00;2.00;;;;;;;;3725226;37;20470;-68
2021/03/23 02:47:09;;;;;;;;;3.00;2.50;;;;;;;;3724842;37;20761;-68
2021/03/23 02:49:35;;;;;;;;;1.00;1.00;;;;;;;;3724614;37;20794;-68
2021/03/23 02:52:01;;;;;;;;;0.75;0.75;;;;;;;;3725249;38;20820;-68
2021/03/23 02:54:26;;;;;;;;;1.00;1.00;;;;;;;;3725194;38;17851;-69
2021/03/23 02:56:52;;;;;;;;;2.50;2.00;;;;;;;;3725175;38;20730;-67
2021/03/23 02:59:18;;;;;;;;;9.25;8.00;;;;;;;;3725046;38;17831;-68
2021/03/23 03:01:43;;;;;;;;;13.00;12.25;;;;;;;;3725335;37;17846;-69
2021/03/23 03:04:16;;;;;;;;;25.75;20.25;;;;;;;;3725220;38;17839;-68
2021/03/23 03:06:43;;;;;;;;;14.00;10.00;;;;;;;;3724777;37;18095;-69
2021/03/23 03:09:08;;;;;;;;;18.50;15.00;;;;;;;;3725122;37;20949;-71
2021/03/23 03:11:35;;;;;;;;;27.75;23.00;;;;;;;;3725223;38;21230;-68
2021/03/23 03:14:06;;;;;;;;;10.50;7.50;;;;;;;;3725257;38;17807;-69
2021/03/23 03:16:34;;;;;;;;;4.50;3.50;;;;;;;;3724831;38;20693;-70
2021/03/23 03:19:00;;;;;;;;;18.50;15.50;;;;;;;;3724610;38;20734;-68
2021/03/23 03:21:27;;;;;;;;;8.75;8.00;;;;;;;;3725448;38;17801;-68
2021/03/23 03:23:53;;;;;;;;;14.50;13.75;;;;;;;;3725036;38;17828;-68
2021/03/23 03:26:19;;;;;;;;;23.00;18.50;;;;;;;;3725384;37;20819;-68
2021/03/23 03:28:49;;;;;;;;;18.25;16.50;;;;;;;;3725264;38;20924;-68
2021/03/23 03:31:24;;;;;;;;;12.00;12.00;;;;;;;;3725452;37;17788;-70
2021/03/23 03:33:51;;;;;;;;;8.50;8.50;;;;;;;;3725402;37;20786;-69
2021/03/23 03:36:20;;;;;;;;;11.50;8.75;;;;;;;;3725092;38;20779;-68
2021/03/23 03:38:45;;;;;;;;;11.00;9.50;;;;;;;;3725005;37;20770;-68
2021/03/23 03:41:12;;;;;;;;;9.00;8.00;;;;;;;;3725361;37;20851;-69
2021/03/23 03:43:39;;;;;;;;;7.25;7.00;;;;;;;;3725023;38;17788;-67
2021/03/23 03:46:05;;;;;;;;;5.00;4.75;;;;;;;;3725427;37;20765;-69
2021/03/23 03:48:32;;;;;;;;;8.75;7.25;;;;;;;;3725160;38;20766;-67
2021/03/23 03:50:58;;;;;;;;;12.00;9.00;;;;;;;;3725254;38;20699;-68
2021/03/23 03:53:24;;;;;;;;;26.50;18.50;;;;;;;;3724928;37;20707;-69
2021/03/23 03:55:51;;;;;;;;;20.75;17.25;;;;;;;;3724795;38;20919;-72
2021/03/23 03:58:17;;;;;;;;;18.00;14.00;;;;;;;;3725128;38;20894;-68
2021/03/23 04:00:43;;;;;;;;;20.00;17.00;;;;;;;;3725596;37;20887;-72
2021/03/23 04:03:17;;;;;;;;;23.25;20.25;;;;;;;;3726937;38;20868;-70
2021/03/23 04:05:44;;;;;;;;;25.75;18.50;;;;;;;;3725673;38;17749;-68
2021/03/23 04:08:15;;;;;;;;;12.50;9.50;;;;;;;;3725064;38;20861;-70
2021/03/23 04:10:48;;;;;;;;;79.25;59.00;;;;;;;;3725456;37;20816;-71
2021/03/23 04:13:14;;;;;;;;;77.00;58.50;;;;;;;;3725474;37;20858;-69
2021/03/23 04:15:41;;;;;;;;;32.00;30.50;;;;;;;;3725357;38;17763;-68
2021/03/23 04:18:08;;;;;;;;;16.00;11.75;;;;;;;;3726235;37;20852;-73
2021/03/23 04:20:34;;;;;;;;;9.00;7.75;;;;;;;;3724975;37;20782;-68
2021/03/23 04:23:01;;;;;;;;;17.50;11.00;;;;;;;;3726756;38;20716;-70
2021/03/23 04:25:28;;;;;;;;;11.00;8.00;;;;;;;;3726433;37;20643;-72
2021/03/23 04:27:54;;;;;;;;;14.50;7.75;;;;;;;;3726192;38;20775;-68
2021/03/23 04:30:21;;;;;;;;;6.00;5.00;;;;;;;;3725973;37;20747;-70
2021/03/23 04:32:47;;;;;;;;;13.50;11.25;;;;;;;;3725746;38;17711;-72
2021/03/23 04:35:31;;;;;;;;;15.75;14.25;;;;;;;;3725919;38;20805;-67
2021/03/23 04:38:03;;;;;;;;;43.50;32.25;;;;;;;;3726013;38;20856;-69
2021/03/23 04:40:38;;;;;;;;;176.00;154.50;;;;;;;;3725180;37;20853;-68
2021/03/23 04:43:18;;;;;;;;;104.25;85.50;;;;;;;;3734117;37;17696;-67
2021/03/23 04:45:51;;;;;;;;;96.25;72.25;;;;;;;;3741840;37;17699;-70
2021/03/23 04:48:27;;;;;;;;;108.75;84.75;;;;;;;;3731206;38;17717;-68
2021/03/23 04:51:01;;;;;;;;;80.25;61.25;;;;;;;;3733242;38;17717;-69
2021/03/23 04:53:35;;;;;;;;;74.50;58.50;;;;;;;;3741633;37;17702;-69
2021/03/23 04:56:03;;;;;;;;;99.25;75.25;;;;;;;;3741708;37;17704;-71
2021/03/23 04:58:37;;;;;;;;;103.50;82.25;;;;;;;;3726015;38;17677;-67
2021/03/23 05:01:03;;;;;;;;;101.50;75.50;;;;;;;;3725599;37;17699;-68
2021/03/23 05:03:31;;;;;;;;;78.00;57.00;;;;;;;;3725476;37;17668;-68
2021/03/23 05:05:58;;;;;;;;;89.50;66.25;;;;;;;;3725840;38;17679;-69
2021/03/23 05:08:28;;;;;;;;;89.00;66.75;;;;;;;;3725016;37;17681;-70
2021/03/23 05:10:54;;;;;;;;;72.75;59.00;;;;;;;;3725579;37;17662;-66
2021/03/23 05:13:20;;;;;;;;;43.25;37.25;;;;;;;;3725647;38;17670;-69
2021/03/23 05:15:45;;;;;;;;;27.00;23.25;;;;;;;;3725725;38;17661;-70
2021/03/23 05:18:12;;;;;;;;;11.00;7.50;;;;;;;;3725628;38;17955;-70
2021/03/23 05:20:38;;;;;;;;;15.75;13.25;;;;;;;;3725642;37;17674;-68
2021/03/23 05:23:04;;;;;;;;;14.25;12.00;;;;;;;;3725334;38;20787;-68
2021/03/23 05:25:30;;;;;;;;;11.50;10.50;;;;;;;;3725241;37;20856;-75
2021/03/23 05:27:56;;;;;;;;;3.00;1.50;;;;;;;;3725396;38;21699;-69
2021/03/23 05:30:24;;;;;;;;;13.50;9.50;;;;;;;;3725557;38;17636;-68
2021/03/23 05:32:50;;;;;;;;;16.25;15.25;;;;;;;;3724937;37;18630;-71
2021/03/23 05:35:25;;;;;;;;;28.75;20.50;;;;;;;;3724905;38;20767;-68
2021/03/23 05:37:51;;;;;;;;;14.50;11.75;;;;;;;;3725354;37;21751;-69
2021/03/23 05:40:18;;;;;;;;;12.00;10.25;;;;;;;;3725333;38;20689;-70
2021/03/23 05:42:45;;;;;;;;;12.25;12.25;;;;;;;;3725131;37;18616;-66
2021/03/23 05:45:39;;;;;;;;;10.00;9.75;;;;;;;;3725604;37;21591;-67
2021/03/23 05:48:38;;;;;;;;;9.25;8.75;;;;;;;;3725680;37;21701;-68
2021/03/23 05:51:22;;;;;;;;;20.25;17.75;;;;;;;;3725663;37;21622;-67
2021/03/23 05:53:52;;;;;;;;;23.00;18.50;;;;;;;;3725091;37;21825;-66
2021/03/23 05:56:25;;;;;;;;;23.75;13.50;;;;;;;;3725410;38;21976;-67
2021/03/23 05:58:54;;;;;;;;;20.50;16.75;;;;;;;;3725877;37;21378;-68
2021/03/23 06:01:38;;;;;;;;;16.25;13.25;;;;;;;;3725364;38;21172;-69
2021/03/23 06:04:08;;;;;;;;;5.00;4.25;;;;;;;;3725808;38;21225;-70
2021/03/23 06:07:02;;;;;;;;;10.50;10.50;;;;;;;;3725917;38;21079;-69
2021/03/23 06:09:30;;;;;;;;;13.50;10.50;;;;;;;;3725890;38;21151;-72
2021/03/23 06:12:16;;;;;;;;;9.00;8.25;;;;;;;;3725987;37;21069;-69
2021/03/23 06:14:55;;;;;;;;;7.25;5.75;;;;;;;;3726731;38;21054;-69
2021/03/23 06:17:34;;;;;;;;;16.75;10.75;;;;;;;;3725694;38;21050;-70
2021/03/23 06:20:18;;;;;;;;;9.25;6.50;;;;;;;;3726056;38;21068;-72
2021/03/23 06:23:04;;;;;;;;;10.50;6.75;;;;;;;;3725985;37;21045;-71
2021/03/23 06:25:34;;;;;;;;;7.00;6.50;;;;;;;;3725918;38;21042;-70
2021/03/23 06:28:18;;;;;;;;;7.50;6.75;;;;;;;;3726031;37;21009;-70
2021/03/23 06:30:51;;;;;;;;;7.50;5.75;;;;;;;;3726105;38;21031;-71
2021/03/23 06:33:19;;;;;;;;;5.75;4.00;;;;;;;;3725840;38;21050;-74
2021/03/23 06:35:48;;;;;;;;;10.00;7.25;;;;;;;;3726892;38;20998;-73
2021/03/23 06:38:21;;;;;;;;;7.00;6.00;;;;;;;;3726686;38;20989;-71
2021/03/23 06:41:10;;;;;;;;;8.00;6.50;;;;;;;;3726848;38;21007;-70
2021/03/23 06:43:37;;;;;;;;;8.50;8.50;;;;;;;;3726585;38;20998;-72
2021/03/23 06:46:09;;;;;;;;;12.25;10.25;;;;;;;;3726714;37;20987;-69
2021/03/23 06:48:35;;;;;;;;;11.25;9.00;;;;;;;;3725658;37;21026;-71
2021/03/23 06:51:11;;;;;;;;;15.50;10.50;;;;;;;;3726246;37;21018;-72
2021/03/23 06:53:37;;;;;;;;;10.50;10.50;;;;;;;;3725972;37;18549;-68
2021/03/23 06:56:20;;;;;;;;;13.25;9.25;;;;;;;;3727162;38;21031;-73
2021/03/23 06:58:46;;;;;;;;;10.25;9.00;;;;;;;;3725925;37;21440;-72
2021/03/23 07:01:23;;;;;;;;;16.25;13.25;;;;;;;;3727108;38;21428;-69
2021/03/23 07:03:53;;;;;;;;;10.50;7.00;;;;;;;;3729176;38;21553;-69
2021/03/23 07:06:30;;;;;;;;;11.25;10.25;;;;;;;;3726442;37;21387;-67
2021/03/23 07:09:18;;;;;;;;;8.00;7.00;;;;;;;;3726358;37;21388;-68
2021/03/23 07:11:59;;;;;;;;;17.50;15.50;;;;;;;;3726037;38;21405;-70
2021/03/23 07:14:34;;;;;;;;;11.25;10.25;;;;;;;;3726006;38;21541;-69
2021/03/23 07:17:28;;;;;;;;;10.50;10.00;;;;;;;;3725367;37;21492;-71
2021/03/23 07:20:10;;;;;;;;;11.75;10.00;;;;;;;;3725623;38;21467;-65
2021/03/23 07:22:56;;;;;;;;;19.75;13.75;;;;;;;;3725673;38;21433;-66
2021/03/23 07:25:30;;;;;;;;;14.00;11.00;;;;;;;;3725433;38;21516;-67
2021/03/23 07:28:14;;;;;;;;;11.00;10.25;;;;;;;;3725467;37;21463;-69
2021/03/23 07:30:41;;;;;;;;;9.00;7.00;;;;;;;;3725511;37;21462;-65
2021/03/23 07:33:14;;;;;;;;;7.75;5.00;;;;;;;;3725278;37;21423;-63
2021/03/23 07:35:42;;;;;;;;;9.00;7.00;;;;;;;;3725249;37;21441;-66
2021/03/23 07:38:18;;;;;;;;;10.50;9.00;;;;;;;;3725217;38;21372;-67
2021/03/23 07:40:48;;;;;;;;;7.50;5.75;;;;;;;;3725372;38;21409;-65
2021/03/23 07:43:37;;;;;;;;;9.00;7.75;;;;;;;;3725478;37;21427;-70
2021/03/23 07:46:16;;;;;;;;;9.25;8.00;;;;;;;;3725444;38;21379;-65
2021/03/23 07:49:08;;;;;;;;;12.75;9.50;;;;;;;;3725204;38;21446;-65
2021/03/23 07:51:43;;;;;;;;;11.75;10.75;;;;;;;;3725778;38;21425;-64
2021/03/23 07:54:21;;;;;;;;;3.00;3.00;;;;;;;;3725681;37;21442;-67
2021/03/23 07:57:06;;;;;;;;;4.25;4.25;;;;;;;;3725098;38;21344;-65
2021/03/23 07:59:46;;;;;;;;;5.00;3.00;;;;;;;;3725319;37;21341;-67
2021/03/23 08:02:25;;;;;;;;;3.25;2.50;;;;;;;;3725305;38;21319;-66
2021/03/23 08:05:14;;;;;;;;;4.00;3.00;;;;;;;;3724992;38;21064;-66
2021/03/23 08:07:47;;;;;;;;;6.75;6.00;;;;;;;;3725276;37;21323;-65
2021/03/23 08:10:41;;;;;;;;;4.25;4.25;;;;;;;;3725253;37;21327;-67
2021/03/23 08:13:15;;;;;;;;;10.00;7.00;;;;;;;;3725353;37;21351;-67
2021/03/23 08:16:03;;;;;;;;;12.50;11.00;;;;;;;;3724982;37;21302;-67
2021/03/23 08:18:46;;;;;;;;;8.00;7.00;;;;;;;;3724824;37;21420;-64
2021/03/23 08:21:43;;;;;;;;;7.00;5.50;;;;;;;;3725344;38;21309;-65
2021/03/23 08:24:32;;;;;;;;;13.25;12.50;;;;;;;;3725126;38;21320;-66
2021/03/23 08:27:16;;;;;;;;;6.50;5.00;;;;;;;;3725460;37;21407;-65
2021/03/23 08:30:09;;;;;;;;;7.00;5.25;;;;;;;;3726082;37;21314;-66
2021/03/23 08:32:40;;;;;;;;;7.75;7.00;;;;;;;;3725671;37;21305;-66
2021/03/23 08:35:28;;;;;;;;;6.25;5.25;;;;;;;;3725544;37;21282;-65
2021/03/23 08:38:12;;;;;;;;;6.50;6.00;;;;;;;;3725576;37;21290;-67
2021/03/23 08:41:00;;;;;;;;;3.50;3.00;;;;;;;;3725323;37;21332;-68
2021/03/23 08:43:43;;;;;;;;;8.25;6.00;;;;;;;;3723188;37;21263;-68
2021/03/23 08:46:26;;;;;;;;;6.75;6.75;;;;;;;;3723617;38;21262;-65
2021/03/23 08:48:58;;;;;;;;;6.00;5.50;;;;;;;;3725471;37;21311;-70
2021/03/23 08:51:26;;;;;;;;;9.50;4.25;;;;;;;;3726363;38;21257;-69
2021/03/23 08:54:09;;;;;;;;;8.00;7.50;;;;;;;;3725766;37;21336;-67
2021/03/23 08:57:01;;;;;;;;;7.50;6.00;;;;;;;;3726510;38;21249;-66
2021/03/23 08:59:53;;;;;;;;;5.50;4.00;;;;;;;;3726501;37;20841;-70
2021/03/23 09:02:39;;;;;;;;;8.25;7.25;;;;;;;;3725336;38;20831;-69
2021/03/23 09:05:24;;;;;;;;;7.25;5.50;;;;;;;;3726508;38;20834;-70
2021/03/23 09:08:12;;;;;;;;;9.50;9.00;;;;;;;;3727268;38;20833;-67
2021/03/23 09:10:59;;;;;;;;;9.75;9.00;;;;;;;;3725554;37;20840;-65
2021/03/23 09:13:45;;;;;;;;;9.75;8.50;;;;;;;;3725964;37;20815;-67
2021/03/23 09:16:30;;;;;;;;;9.50;8.25;;;;;;;;3726159;37;20848;-67
2021/03/23 09:19:08;;;;;;;;;11.25;9.00;;;;;;;;3725487;38;20818;-68
2021/03/23 09:22:12;;;;;;;;;9.50;8.00;;;;;;;;3726277;37;20831;-66
2021/03/23 09:24:40;;;;;;;;;15.50;9.00;;;;;;;;3725764;38;20786;-66
2021/03/23 09:27:32;;;;;;;;;9.50;8.25;;;;;;;;3725650;37;20922;-68
2021/03/23 09:29:57;;;;;;;;;6.00;5.00;;;;;;;;3726453;37;20799;-67
2021/03/23 09:32:25;;;;;;;;;2.50;1.50;;;;;;;;3726699;38;20787;-65
2021/03/23 09:35:09;;;;;;;;;4.00;4.00;;;;;;;;3727476;37;18275;-65
2021/03/23 09:38:07;;;;;;;;;9.50;8.25;;;;;;;;3726889;37;20783;-66
2021/03/23 09:40:39;;;;;;;;;11.00;9.25;;;;;;;;3728901;37;20765;-68
2021/03/23 09:43:28;;;;;;;;;9.50;8.50;;;;;;;;3729875;37;20771;-63
2021/03/23 09:45:56;;;;;;;;;10.50;9.25;;;;;;;;3726269;37;20760;-65
2021/03/23 09:49:05;;;;;;;;;7.75;7.00;;;;;;;;3725605;38;20775;-65
2021/03/23 09:51:49;;;;;;;;;10.00;9.50;;;;;;;;3725657;37;20783;-67
2021/03/23 09:54:27;;;;;;;;;11.00;10.25;;;;;;;;3726249;37;20806;-64
2021/03/23 09:56:54;;;;;;;;;3.75;3.75;;;;;;;;3725628;37;20792;-63
2021/03/23 09:59:22;;;;;;;;;7.75;5.75;;;;;;;;3725657;37;21159;-65
2021/03/23 10:02:05;;;;;;;;;5.00;4.25;;;;;;;;3725477;38;21167;-66
2021/03/23 10:04:38;;;;;;;;;3.25;3.25;;;;;;;;3725992;37;21168;-64
2021/03/23 10:07:05;;;;;;;;;3.75;3.25;;;;;;;;3725376;37;21161;-66
2021/03/23 10:09:37;;;;;;;;;6.50;5.00;;;;;;;;3725349;37;21160;-65
2021/03/23 10:12:04;;;;;;;;;8.50;5.75;;;;;;;;3726053;38;20785;-66
2021/03/23 10:15:00;;;;;;;;;10.50;9.50;;;;;;;;3726351;38;21181;-65
2021/03/23 10:17:27;;;;;;;;;6.50;6.50;;;;;;;;3725834;38;21222;-67
2021/03/23 10:20:02;;;;;;;;;8.50;7.00;;;;;;;;3724789;37;21162;-65
2021/03/23 10:22:29;;;;;;;;;10.25;7.75;;;;;;;;3725439;37;21142;-68
2021/03/23 10:49:26;;;;;;;;;4.50;4.00;;;;;;;;3725188;37;20056;-64
2021/03/23 10:51:54;;;;;;;;;4.00;4.00;;;;;;;;3725737;37;20111;-65
2021/03/23 10:54:23;;;;;;;;;14.00;9.00;;;;;;;;3725463;38;20078;-62
2021/03/23 10:56:53;;;;;;;;;11.75;7.75;;;;;;;;3725694;37;20127;-63
2021/03/23 10:59:30;;;;;;;;;11.75;10.00;;;;;;;;3725569;37;20421;-64
2021/03/23 11:02:00;;;;;;;;;14.00;10.75;;;;;;;;3725686;37;20421;-63
2021/03/23 11:04:27;;;;;;;;;14.25;13.25;;;;;;;;3725729;38;20765;-65
2021/03/23 11:06:53;;;;;;;;;13.00;7.50;;;;;;;;3725461;38;20451;-63
2021/03/23 11:09:20;;;;;;;;;12.75;11.75;;;;;;;;3725810;37;20618;-63
2021/03/23 11:11:46;;;;;;;;;10.50;9.00;;;;;;;;3725679;38;20440;-66
2021/03/23 11:14:13;;;;;;;;;13.75;13.50;;;;;;;;3725647;37;20430;-65
2021/03/23 11:16:41;;;;;;;;;10.25;10.25;;;;;;;;3725539;38;20441;-63
2021/03/23 11:19:17;;;;;;;;;13.75;10.75;;;;;;;;3725482;37;20387;-64
2021/03/23 11:21:44;;;;;;;;;12.00;11.50;;;;;;;;3725825;37;20435;-63
2021/03/23 11:24:09;;;;;;;;;15.25;13.25;;;;;;;;3725457;37;20440;-62
2021/03/23 11:26:38;;;;;;;;;17.00;15.75;;;;;;;;3725456;38;20446;-63
2021/03/23 11:29:05;;;;;;;;;19.25;17.25;;;;;;;;3725498;38;18071;-64
2021/03/23 11:31:33;;;;;;;;;15.75;15.50;;;;;;;;3725492;38;20445;-64
2021/03/23 11:34:02;;;;;;;;;18.75;15.75;;;;;;;;3725270;37;20410;-63
2021/03/23 11:36:28;;;;;;;;;21.50;16.00;;;;;;;;3725484;37;20435;-64
2021/03/23 11:38:57;;;;;;;;;13.25;12.50;;;;;;;;3725515;38;20419;-64
2021/03/23 11:41:52;;;;;;;;;18.75;16.75;;;;;;;;3725532;37;20395;-64
2021/03/23 11:44:21;;;;;;;;;17.75;16.75;;;;;;;;3725477;37;20427;-63
2021/03/23 11:46:51;;;;;;;;;17.00;15.00;;;;;;;;3725627;38;20402;-63
2021/03/23 11:49:31;;;;;;;;;19.50;16.25;;;;;;;;3725020;37;20403;-63
2021/03/23 11:51:57;;;;;;;;;13.00;12.00;;;;;;;;3725823;38;20413;-64
2021/03/23 11:54:25;;;;;;;;;16.50;14.25;;;;;;;;3725520;37;20410;-63
2021/03/23 11:56:51;;;;;;;;;20.00;17.25;;;;;;;;3725691;38;18056;-62
2021/03/23 11:59:21;;;;;;;;;20.00;15.75;;;;;;;;3726988;38;20412;-63
2021/03/23 12:01:48;;;;;;;;;13.50;13.00;;;;;;;;3725712;37;20381;-63
2021/03/23 12:04:14;;;;;;;;;17.25;14.25;;;;;;;;3725981;38;20399;-63
2021/03/23 12:06:47;;;;;;;;;22.00;19.75;;;;;;;;3725868;37;20396;-65
2021/03/23 12:09:17;;;;;;;;;20.00;16.00;;;;;;;;3725937;38;20397;-64
2021/03/23 12:11:51;;;;;;;;;21.50;18.25;;;;;;;;3726102;38;20406;-65
2021/03/23 12:14:38;;;;;;;;;21.50;19.00;;;;;;;;3725729;37;20408;-63
2021/03/23 12:17:12;;;;;;;;;13.25;12.25;;;;;;;;3726204;37;20383;-64
2021/03/23 12:19:42;;;;;;;;;16.75;14.50;;;;;;;;3728136;38;20324;-64
2021/03/23 12:22:10;;;;;;;;;12.75;8.50;;;;;;;;3735306;37;20351;-65
2021/03/23 12:24:36;;;;;;;;;18.00;18.00;;;;;;;;3733457;37;20562;-63
2021/03/23 12:27:04;;;;;;;;;20.25;18.75;;;;;;;;3732065;37;20346;-62
2021/03/23 12:29:30;;;;;;;;;17.25;14.25;;;;;;;;3735223;37;20367;-64
2021/03/23 12:31:55;;;;;;;;;19.50;18.25;;;;;;;;3727832;37;20369;-64
2021/03/23 12:34:22;;;;;;;;;19.25;17.50;;;;;;;;3725948;38;17967;-62
2021/03/23 12:36:48;;;;;;;;;14.00;13.00;;;;;;;;3725233;38;17952;-65
2021/03/23 12:39:17;;;;;;;;;23.00;20.25;;;;;;;;3726130;37;20328;-65
2021/03/23 12:41:45;;;;;;;;;22.50;20.25;;;;;;;;3725877;38;17976;-64
2021/03/23 12:44:11;;;;;;;;;19.75;16.00;;;;;;;;3725429;38;20305;-64
2021/03/23 12:46:37;;;;;;;;;23.75;20.00;;;;;;;;3725269;38;20287;-63
2021/03/23 12:49:05;;;;;;;;;18.25;17.25;;;;;;;;3725799;38;17953;-65
2021/03/23 12:51:42;;;;;;;;;25.50;22.00;;;;;;;;3725123;38;17943;-63
2021/03/23 12:54:45;;;;;;;;;21.75;21.75;;;;;;;;3725516;38;20284;-65
2021/03/23 12:57:15;;;;;;;;;18.00;17.75;;;;;;;;3725673;38;20317;-64
2021/03/23 12:59:41;;;;;;;;;23.00;21.00;;;;;;;;3725430;38;20301;-62
2021/03/23 13:02:07;;;;;;;;;21.50;18.75;;;;;;;;3725678;38;20298;-64
2021/03/23 13:04:33;;;;;;;;;18.50;17.50;;;;;;;;3725560;38;17953;-63
2021/03/23 13:06:59;;;;;;;;;20.00;18.50;;;;;;;;3725675;37;20310;-64
2021/03/23 13:09:26;;;;;;;;;20.50;20.25;;;;;;;;3725052;38;20314;-64
2021/03/23 13:11:52;;;;;;;;;24.00;19.25;;;;;;;;3725975;37;20311;-65
2021/03/23 13:14:23;;;;;;;;;13.25;12.50;;;;;;;;3725981;37;20304;-65
2021/03/23 13:16:49;;;;;;;;;19.25;19.00;;;;;;;;3725779;37;20285;-63
2021/03/23 13:19:15;;;;;;;;;19.75;19.75;;;;;;;;3725692;38;20274;-65
2021/03/23 13:21:45;;;;;;;;;23.75;21.00;;;;;;;;3725725;37;20297;-65
2021/03/23 13:24:30;;;;;;;;;18.00;15.50;;;;;;;;3726265;37;20273;-65
2021/03/23 13:27:16;;;;;;;;;17.75;17.50;;;;;;;;3725736;38;20288;-63
2021/03/23 13:29:42;;;;;;;;;23.75;20.75;;;;;;;;3725358;37;20277;-64
2021/03/23 13:32:08;;;;;;;;;24.00;20.75;;;;;;;;3725610;37;20659;-64
2021/03/23 13:34:33;;;;;;;;;24.50;20.75;;;;;;;;3726233;38;17899;-64
2021/03/23 13:37:05;;;;;;;;;20.50;20.00;;;;;;;;3726201;37;17910;-64
2021/03/23 13:39:32;;;;;;;;;19.75;18.50;;;;;;;;3725810;38;20288;-64
2021/03/23 13:42:06;;;;;;;;;21.00;17.00;;;;;;;;3725727;37;20256;-64
2021/03/23 13:44:45;;;;;;;;;5.50;4.00;;;;;;;;3726102;37;20243;-64
2021/03/23 13:47:12;;;;;;;;;12.50;12.25;;;;;;;;3725867;37;20205;-65
2021/03/23 13:49:37;;;;;;;;;12.25;10.25;;;;;;;;3725633;37;20244;-65
2021/03/23 13:52:04;;;;;;;;;13.75;13.00;;;;;;;;3725678;37;20237;-65
2021/03/23 13:54:30;;;;;;;;;14.75;13.25;;;;;;;;3725925;37;17894;-68
2021/03/23 13:56:56;;;;;;;;;17.50;14.50;;;;;;;;3725621;37;20224;-66
2021/03/23 13:59:23;;;;;;;;;19.50;15.00;;;;;;;;3725586;38;20228;-65
2021/03/23 14:01:50;;;;;;;;;18.00;16.75;;;;;;;;3729459;37;20208;-64
2021/03/23 14:04:16;;;;;;;;;13.00;12.00;;;;;;;;3727263;38;20209;-65
2021/03/23 14:06:43;;;;;;;;;15.75;13.25;;;;;;;;3728054;38;20233;-64
2021/03/23 14:09:28;;;;;;;;;17.00;16.00;;;;;;;;3726065;37;20235;-63
2021/03/23 14:11:54;;;;;;;;;9.50;7.50;;;;;;;;3728073;37;20233;-64
2021/03/23 14:14:20;;;;;;;;;17.00;15.50;;;;;;;;3725521;37;20168;-65
2021/03/23 14:16:47;;;;;;;;;11.25;9.25;;;;;;;;3726066;37;17850;-65
2021/03/23 14:19:13;;;;;;;;;9.25;9.25;;;;;;;;3725730;38;17823;-64
2021/03/23 14:21:39;;;;;;;;;12.00;11.25;;;;;;;;3725487;37;20131;-65
2021/03/23 14:24:05;;;;;;;;;13.75;13.75;;;;;;;;3725915;37;17825;-64
2021/03/23 14:26:31;;;;;;;;;14.25;13.50;;;;;;;;3725914;37;20216;-64
2021/03/23 14:28:58;;;;;;;;;5.25;5.25;;;;;;;;3725742;37;20191;-65
2021/03/23 14:31:25;;;;;;;;;8.75;7.75;;;;;;;;3725369;38;20189;-64
2021/03/23 14:33:51;;;;;;;;;5.00;5.00;;;;;;;;3725615;38;20135;-64
2021/03/23 14:36:26;;;;;;;;;5.00;5.00;;;;;;;;3725838;37;20144;-65
2021/03/23 14:38:53;;;;;;;;;5.00;5.00;;;;;;;;3725866;38;20130;-64
2021/03/23 14:41:45;;;;;;;;;5.50;5.00;;;;;;;;3725997;38;20140;-66
2021/03/23 14:44:14;;;;;;;;;5.00;5.00;;;;;;;;3725812;37;20143;-66
2021/03/23 14:46:40;;;;;;;;;5.00;3.25;;;;;;;;3725943;38;20111;-64
2021/03/23 14:49:06;;;;;;;;;7.50;4.50;;;;;;;;3725776;38;20134;-65
2021/03/23 14:51:39;;;;;;;;;5.00;3.50;;;;;;;;3725974;37;17815;-66
2021/03/23 14:54:12;;;;;;;;;7.00;6.50;;;;;;;;3726281;37;20130;-66
2021/03/23 14:56:39;;;;;;;;;5.25;5.25;;;;;;;;3725783;37;20143;-66
2021/03/23 14:59:06;;;;;;;;;4.50;4.50;;;;;;;;3726037;37;20098;-68
2021/03/23 15:01:33;;;;;;;;;8.50;8.00;;;;;;;;3726196;38;20114;-65
2021/03/23 15:03:59;;;;;;;;;7.50;5.25;;;;;;;;3725855;38;20393;-66
2021/03/23 15:06:32;;;;;;;;;7.00;5.75;;;;;;;;3726242;37;20082;-65
2021/03/23 15:09:00;;;;;;;;;8.00;8.00;;;;;;;;3725749;38;17768;-66
2021/03/23 15:11:33;;;;;;;;;8.50;7.25;;;;;;;;3725980;37;20074;-65
2021/03/23 15:13:58;;;;;;;;;10.50;7.50;;;;;;;;3726526;37;20073;-65
2021/03/23 15:16:24;;;;;;;;;8.50;7.00;;;;;;;;3726799;38;20057;-67
2021/03/23 15:18:50;;;;;;;;;9.75;8.75;;;;;;;;3728295;38;17757;-65
2021/03/23 15:21:17;;;;;;;;;14.50;11.25;;;;;;;;3725751;37;17764;-66
2021/03/23 15:23:49;;;;;;;;;7.25;6.00;;;;;;;;3727171;37;17766;-65